Time;durP1;ratioP1;P1;durP2;ratioP2;P2;SDS_P1;SDS_P2;PMS_P1;PMS_P2;Temp;Humidity;BMP_temperature;BMP_pressure;BME280_temperature;BME280_humidity;BME280_pressure;Samples;Min_cycle;Max_cycle;Signal;HPM_P1;HPM_P2
2024/02/19 00:00:34;;;;;;;109.55;87.78;;;;;;;12.35;100.00;98596.22;5024282;28;20675;-60
2024/02/19 00:03:02;;;;;;;77.25;31.92;;;;;;;11.28;100.00;98606.47;5024923;28;20576;-60
2024/02/19 00:05:29;;;;;;;53.78;34.53;;;;;;;11.04;100.00;98606.38;5026287;28;20053;-59
2024/02/19 00:07:55;;;;;;;81.95;25.80;;;;;;;11.19;100.00;98609.91;5027026;28;20067;-58
2024/02/19 00:10:20;;;;;;;42.88;21.80;;;;;;;11.10;100.00;98608.13;5025120;28;20033;-61
2024/02/19 00:12:48;;;;;;;36.17;15.43;;;;;;;11.03;100.00;98609.81;5024429;28;20024;-59
2024/02/19 00:15:13;;;;;;;60.33;46.75;;;;;;;11.30;100.00;98605.63;5025178;28;20028;-60
2024/02/19 00:17:39;;;;;;;37.45;14.73;;;;;;;10.67;100.00;98595.75;5025789;28;20021;-60
2024/02/19 00:20:05;;;;;;;38.42;16.10;;;;;;;10.72;100.00;98601.00;5022402;28;20079;-59
2024/02/19 00:22:31;;;;;;;40.83;19.55;;;;;;;11.10;100.00;98600.31;5025739;28;20041;-60
2024/02/19 00:24:56;;;;;;;86.65;38.30;;;;;;;11.69;100.00;98594.44;5022329;28;20079;-60
2024/02/19 00:27:21;;;;;;;56.28;39.70;;;;;;;11.62;100.00;98587.47;5026609;28;20038;-60
2024/02/19 00:29:47;;;;;;;50.70;43.45;;;;;;;12.08;100.00;98576.25;5024845;28;20039;-62
2024/02/19 00:32:12;;;;;;;40.42;25.20;;;;;;;11.45;100.00;98580.47;5023105;28;20057;-61
2024/02/19 00:34:42;;;;;;;105.22;75.80;;;;;;;11.25;100.00;98586.47;5024229;28;20052;-61
2024/02/19 00:37:08;;;;;;;36.45;15.98;;;;;;;10.98;100.00;98584.66;5023831;28;20037;-59
2024/02/19 00:39:33;;;;;;;76.70;44.22;;;;;;;11.22;100.00;98585.59;5024773;28;20402;-59
2024/02/19 00:41:59;;;;;;;192.18;172.15;;;;;;;11.54;100.00;98580.50;5022464;28;20470;-62
2024/02/19 00:44:24;;;;;;;262.67;235.77;;;;;;;11.87;100.00;98574.47;5024073;28;20025;-61
2024/02/19 00:46:49;;;;;;;56.78;36.67;;;;;;;11.68;100.00;98572.72;5023975;28;20034;-63
2024/02/19 00:49:15;;;;;;;64.68;40.13;;;;;;;11.70;100.00;98570.09;5026747;28;20028;-61
2024/02/19 00:51:42;;;;;;;86.32;76.82;;;;;;;11.96;100.00;98569.25;5023919;28;20434;-62
2024/02/19 00:54:07;;;;;;;35.30;13.60;;;;;;;11.85;100.00;98570.09;5021815;28;22204;-61
2024/02/19 00:56:32;;;;;;;177.13;158.32;;;;;;;12.48;100.00;98570.13;5024311;28;20630;-59
2024/02/19 00:58:58;;;;;;;71.88;39.13;;;;;;;12.13;100.00;98574.50;5023261;28;20447;-59
2024/02/19 01:01:23;;;;;;;37.50;17.35;;;;;;;11.65;100.00;98575.31;5025084;28;20610;-61
2024/02/19 01:03:48;;;;;;;63.78;38.00;;;;;;;11.42;100.00;98577.84;5022121;28;20765;-58
2024/02/19 01:06:14;;;;;;;78.15;55.25;;;;;;;12.07;100.00;98566.69;5021612;28;20130;-60
2024/02/19 01:08:39;;;;;;;204.93;182.73;;;;;;;12.62;100.00;98565.75;5021322;28;20032;-59
2024/02/19 01:11:04;;;;;;;73.13;16.70;;;;;;;11.66;100.00;98563.16;5019876;28;20061;-59
2024/02/19 01:13:30;;;;;;;50.10;15.73;;;;;;;11.15;100.00;98569.97;5022833;28;20029;-59
2024/02/19 01:15:55;;;;;;;94.80;45.47;;;;;;;11.32;100.00;98574.34;5020492;28;20460;-60
2024/02/19 01:18:22;;;;;;;67.47;34.80;;;;;;;11.72;100.00;98574.44;5021804;28;20108;-60
2024/02/19 01:20:48;;;;;;;63.05;38.22;;;;;;;11.70;100.00;98572.72;5021070;28;20128;-59
2024/02/19 01:23:13;;;;;;;50.00;16.02;;;;;;;12.31;100.00;98575.34;5021152;28;20409;-61
2024/02/19 01:25:40;;;;;;;52.47;16.42;;;;;;;11.98;100.00;98567.50;5021374;28;20048;-60
2024/02/19 01:28:06;;;;;;;94.65;79.57;;;;;;;11.79;100.00;98569.22;5018772;28;20276;-60
2024/02/19 01:30:31;;;;;;;52.75;16.20;;;;;;;10.83;100.00;98586.31;5018316;28;20473;-59
2024/02/19 01:32:57;;;;;;;83.25;17.95;;;;;;;11.56;100.00;98589.19;5020212;28;20021;-61
2024/02/19 01:35:22;;;;;;;55.63;15.55;;;;;;;11.27;100.00;98599.50;5020568;28;20043;-61
2024/02/19 01:37:48;;;;;;;49.28;15.38;;;;;;;11.17;100.00;98602.06;5020524;28;20025;-61
2024/02/19 01:40:13;;;;;;;45.55;21.83;;;;;;;11.00;100.00;98604.63;5017750;28;20124;-61
2024/02/19 01:42:38;;;;;;;49.88;17.08;;;;;;;10.71;100.00;98591.44;5020656;28;20021;-60
2024/02/19 01:45:07;;;;;;;71.93;16.30;;;;;;;11.39;100.00;98580.47;5017932;28;20017;-60
2024/02/19 01:47:33;;;;;;;44.00;15.85;;;;;;;11.07;100.00;98582.94;5020542;28;20022;-61
2024/02/19 01:49:59;;;;;;;80.97;18.85;;;;;;;11.39;100.00;98588.28;5019999;28;20025;-62
2024/02/19 01:52:25;;;;;;;63.00;19.45;;;;;;;11.31;100.00;98580.44;5021750;28;20835;-61
2024/02/19 01:54:51;;;;;;;41.95;15.13;;;;;;;11.17;100.00;98580.41;5025189;28;20209;-59
2024/02/19 01:57:17;;;;;;;84.97;76.35;;;;;;;12.07;100.00;98577.13;5023355;28;20048;-59
2024/02/19 01:59:43;;;;;;;142.57;109.95;;;;;;;12.28;100.00;98584.06;5023796;28;20108;-60
2024/02/19 02:02:09;;;;;;;71.18;19.48;;;;;;;11.51;100.00;98585.69;5022032;28;20098;-59
2024/02/19 02:04:36;;;;;;;58.95;14.40;;;;;;;11.70;100.00;98590.97;5025636;28;20037;-60
2024/02/19 02:07:02;;;;;;;74.15;18.40;;;;;;;11.77;100.00;98582.25;5023061;28;20556;-61
2024/02/19 02:09:28;;;;;;;55.10;16.42;;;;;;;12.05;100.00;98581.41;5023616;28;20505;-62
2024/02/19 02:11:53;;;;;;;84.85;55.40;;;;;;;11.61;100.00;98577.91;5022871;28;20065;-59
2024/02/19 02:14:19;;;;;;;59.42;33.58;;;;;;;11.26;100.00;98575.22;5022834;28;20095;-60
2024/02/19 02:16:44;;;;;;;114.35;102.60;;;;;;;11.40;100.00;98569.19;5024690;28;20033;-62
2024/02/19 02:19:13;;;;;;;154.43;110.50;;;;;;;11.14;100.00;98562.16;5022867;28;20033;-59
2024/02/19 02:21:41;;;;;;;119.38;94.75;;;;;;;11.83;100.00;98566.66;5022071;28;20561;-63
2024/02/19 02:24:06;;;;;;;86.65;32.63;;;;;;;10.51;100.00;98569.63;5022045;28;20040;-59
2024/02/19 02:26:37;;;;;;;241.15;217.93;;;;;;;11.60;100.00;98574.44;5022424;28;20043;-59
2024/02/19 02:29:02;;;;;;;135.57;102.30;;;;;;;11.01;100.00;98567.31;5024318;28;20025;-61
2024/02/19 02:31:29;;;;;;;51.45;23.77;;;;;;;10.98;100.00;98564.69;5022420;28;20561;-59
2024/02/19 02:33:55;;;;;;;84.43;49.92;;;;;;;11.01;100.00;98554.28;5023115;28;20072;-59
2024/02/19 02:36:20;;;;;;;93.10;73.80;;;;;;;10.94;100.00;98555.13;5025111;28;20033;-62
2024/02/19 02:38:46;;;;;;;100.47;89.70;;;;;;;11.50;100.00;98565.72;5024090;28;20403;-60
2024/02/19 02:41:11;;;;;;;73.88;20.13;;;;;;;11.24;100.00;98566.50;5021469;28;20037;-62
2024/02/19 02:43:37;;;;;;;55.70;20.80;;;;;;;11.49;100.00;98561.38;5025564;28;20063;-60
2024/02/19 02:46:02;;;;;;;146.27;110.50;;;;;;;12.23;100.00;98564.94;5023280;28;20098;-63
2024/02/19 02:48:28;;;;;;;103.97;91.50;;;;;;;12.32;100.00;98541.44;5021998;28;20575;-59
2024/02/19 02:50:53;;;;;;;236.35;210.60;;;;;;;12.11;100.00;98537.97;5021847;28;20299;-60
2024/02/19 02:53:21;;;;;;;236.98;213.52;;;;;;;11.23;100.00;98543.06;5023022;28;20032;-60
2024/02/19 02:55:46;;;;;;;47.92;15.65;;;;;;;11.08;100.00;98534.38;5023452;28;20056;-63
2024/02/19 02:58:11;;;;;;;75.90;21.23;;;;;;;10.86;100.00;98547.28;5022084;28;20124;-61
2024/02/19 03:00:37;;;;;;;50.25;15.55;;;;;;;11.65;100.00;98553.59;5021662;28;20413;-61
2024/02/19 03:03:02;;;;;;;86.47;35.75;;;;;;;11.35;100.00;98552.69;5020358;28;20404;-61
2024/02/19 03:05:28;;;;;;;69.43;43.53;;;;;;;12.03;100.00;98552.72;5021464;28;20890;-60
2024/02/19 03:07:53;;;;;;;111.40;91.15;;;;;;;12.30;100.00;98537.09;5023278;28;20041;-59
2024/02/19 03:10:19;;;;;;;55.47;46.83;;;;;;;11.64;100.00;98542.31;5021494;28;20569;-60
2024/02/19 03:12:44;;;;;;;43.72;14.25;;;;;;;11.85;100.00;98544.03;5024468;28;20052;-61
2024/02/19 03:15:09;;;;;;;122.70;66.60;;;;;;;11.71;100.00;98546.66;5024239;28;20029;-60
2024/02/19 03:17:34;;;;;;;43.78;12.80;;;;;;;11.37;100.00;98550.94;5022707;28;20021;-61
2024/02/19 03:20:00;;;;;;;66.18;27.13;;;;;;;11.80;100.00;98544.94;5020841;28;20037;-61
2024/02/19 03:22:25;;;;;;;88.13;55.15;;;;;;;11.24;100.00;98542.22;5022037;28;20033;-60
2024/02/19 03:24:51;;;;;;;47.72;16.40;;;;;;;11.19;100.00;98539.59;5023678;28;20020;-59
2024/02/19 03:27:16;;;;;;;52.10;39.17;;;;;;;12.09;100.00;98537.13;5021380;28;20560;-59
2024/02/19 03:29:41;;;;;;;82.00;15.57;;;;;;;11.48;100.00;98556.16;5020826;28;20468;-59
2024/02/19 03:32:07;;;;;;;114.07;74.10;;;;;;;11.46;100.00;98538.81;5021432;28;20033;-62
2024/02/19 03:34:32;;;;;;;66.43;23.20;;;;;;;12.54;100.00;98554.44;5020743;28;20409;-62
2024/02/19 03:36:57;;;;;;;58.17;15.40;;;;;;;12.15;100.00;98548.41;5022620;28;20041;-60
2024/02/19 03:39:23;;;;;;;166.23;151.20;;;;;;;12.55;100.00;98547.50;5021105;28;20826;-61
2024/02/19 03:41:49;;;;;;;146.38;131.32;;;;;;;12.32;100.00;98538.84;5021924;28;20036;-61
2024/02/19 03:44:15;;;;;;;71.00;15.95;;;;;;;12.12;100.00;98546.69;5020510;28;20041;-60
2024/02/19 03:46:40;;;;;;;263.02;203.85;;;;;;;11.78;100.00;98542.31;5022455;28;20049;-62
2024/02/19 03:49:06;;;;;;;84.13;64.47;;;;;;;11.65;100.00;98551.00;5023744;28;20029;-62
2024/02/19 03:51:31;;;;;;;57.95;17.48;;;;;;;11.31;100.00;98557.88;5023593;28;20072;-61
2024/02/19 03:53:56;;;;;;;107.75;96.30;;;;;;;12.12;100.00;98551.91;5021473;28;20025;-60
2024/02/19 03:56:22;;;;;;;118.88;107.15;;;;;;;12.27;100.00;98552.75;5020373;28;20404;-62
2024/02/19 03:58:47;;;;;;;64.93;39.13;;;;;;;11.70;100.00;98555.31;5022874;28;20986;-60
2024/02/19 04:01:13;;;;;;;71.95;21.02;;;;;;;11.88;100.00;98557.97;5019830;28;20156;-64
2024/02/19 04:03:38;;;;;;;36.10;15.40;;;;;;;11.50;100.00;98557.91;5023352;28;20028;-60
2024/02/19 04:06:04;;;;;;;89.95;39.50;;;;;;;11.28;100.00;98567.41;5018853;28;20041;-60
2024/02/19 04:08:33;;;;;;;47.22;12.88;;;;;;;11.15;100.00;98574.31;5022193;28;20043;-61
2024/02/19 04:10:58;;;;;;;119.80;93.15;;;;;;;12.05;100.00;98556.25;5023069;28;20037;-61
2024/02/19 04:13:24;;;;;;;55.17;29.90;;;;;;;11.92;100.00;98567.53;5020663;28;20025;-61
2024/02/19 04:15:49;;;;;;;37.28;11.82;;;;;;;13.02;100.00;98558.66;5021158;28;21011;-59
2024/02/19 04:18:14;;;;;;;211.25;167.65;;;;;;;12.45;100.00;98560.56;5020083;28;20139;-61
2024/02/19 04:20:40;;;;;;;72.43;51.88;;;;;;;12.98;100.00;98565.63;5021384;28;20040;-62
2024/02/19 04:23:05;;;;;;;58.65;24.38;;;;;;;12.38;100.00;98564.06;5019124;28;20025;-63
2024/02/19 04:25:30;;;;;;;51.35;10.80;;;;;;;11.53;100.00;98562.25;5021663;28;20531;-61
2024/02/19 04:27:55;;;;;;;49.08;19.23;;;;;;;11.93;100.00;98558.81;5024092;28;20029;-62
2024/02/19 04:30:21;;;;;;;40.15;10.68;;;;;;;10.81;100.00;98573.28;5019007;28;20064;-62
2024/02/19 04:32:46;;;;;;;91.43;67.75;;;;;;;11.94;100.00;98590.13;5022266;28;20328;-62
2024/02/19 04:35:12;;;;;;;93.35;53.47;;;;;;;11.13;100.00;98579.50;5020044;28;20568;-60
2024/02/19 04:37:37;;;;;;;48.25;24.13;;;;;;;11.18;100.00;98579.53;5022901;28;20486;-61
2024/02/19 04:40:03;;;;;;;76.63;29.35;;;;;;;11.74;100.00;98579.66;5019205;28;20032;-63
2024/02/19 04:42:28;;;;;;;69.97;38.25;;;;;;;11.74;100.00;98582.28;5022269;28;20041;-61
2024/02/19 04:44:54;;;;;;;37.53;12.52;;;;;;;11.48;100.00;98580.50;5023850;28;20048;-60
2024/02/19 04:47:19;;;;;;;107.07;48.67;;;;;;;11.39;100.00;98580.47;5023049;28;20385;-61
2024/02/19 04:49:46;;;;;;;76.10;56.22;;;;;;;11.17;100.00;98580.41;5019770;28;20538;-64
2024/02/19 04:52:11;;;;;;;103.72;69.75;;;;;;;11.42;100.00;98583.06;5019493;28;20114;-62
2024/02/19 04:54:36;;;;;;;93.43;37.38;;;;;;;11.00;100.00;98589.00;5022168;28;20104;-62
2024/02/19 04:57:02;;;;;;;59.95;31.15;;;;;;;11.18;100.00;98584.72;5021082;28;20078;-61
2024/02/19 04:59:29;;;;;;;102.63;67.43;;;;;;;11.18;100.00;98585.59;5019062;28;20116;-63
2024/02/19 05:01:55;;;;;;;130.38;116.10;;;;;;;11.42;100.00;98588.28;5021431;28;20249;-60
2024/02/19 05:04:21;;;;;;;172.23;155.18;;;;;;;11.13;100.00;98597.72;5020723;28;20017;-61
2024/02/19 05:06:47;;;;;;;42.80;11.90;;;;;;;11.86;100.00;98591.84;5018881;28;20038;-62
2024/02/19 05:09:13;;;;;;;63.53;17.60;;;;;;;11.76;100.00;98590.94;5021232;28;20575;-63
2024/02/19 05:11:38;;;;;;;43.70;18.98;;;;;;;11.79;100.00;98592.69;5019894;28;20163;-63
2024/02/19 05:14:04;;;;;;;58.42;15.07;;;;;;;12.07;100.00;98591.00;5021821;28;20088;-59
2024/02/19 05:16:29;;;;;;;74.38;50.22;;;;;;;11.71;100.00;98585.75;5020159;28;20041;-61
2024/02/19 05:18:56;;;;;;;52.35;24.45;;;;;;;12.03;100.00;98588.38;5021263;28;20060;-63
2024/02/19 05:21:21;;;;;;;75.50;16.35;;;;;;;11.82;100.00;98593.59;5017719;28;20140;-62
2024/02/19 05:23:46;;;;;;;32.72;11.00;;;;;;;11.68;100.00;98593.56;5021336;28;20546;-62
2024/02/19 05:26:12;;;;;;;77.13;25.75;;;;;;;11.56;100.00;98596.13;5021486;28;20045;-61
2024/02/19 05:28:38;;;;;;;63.95;13.13;;;;;;;10.74;100.00;98594.94;5026504;28;20033;-62
2024/02/19 05:31:03;;;;;;;65.10;44.78;;;;;;;11.59;100.00;98597.00;5024760;28;20043;-61
2024/02/19 05:33:29;;;;;;;40.88;14.38;;;;;;;11.25;100.00;98603.84;5025910;28;20204;-63
2024/02/19 05:35:54;;;;;;;56.03;12.93;;;;;;;11.59;100.00;98606.56;5026147;28;20144;-61
2024/02/19 05:38:20;;;;;;;74.78;16.23;;;;;;;11.50;100.00;98610.00;5024999;28;20028;-61
2024/02/19 05:40:45;;;;;;;51.38;14.68;;;;;;;11.52;100.00;98610.91;5023876;28;20033;-59
2024/02/19 05:43:11;;;;;;;91.32;14.77;;;;;;;11.80;100.00;98607.47;5021990;28;20057;-62
2024/02/19 05:45:36;;;;;;;55.85;28.85;;;;;;;11.59;100.00;98615.22;5025861;28;20052;-60
2024/02/19 05:48:01;;;;;;;47.50;20.20;;;;;;;12.40;100.00;98616.22;5026172;28;20021;-63
2024/02/19 05:50:29;;;;;;;79.00;18.38;;;;;;;12.18;100.00;98611.88;5023817;28;20421;-60
2024/02/19 05:52:54;;;;;;;48.88;11.10;;;;;;;11.26;100.00;98613.41;5025905;28;20503;-61
2024/02/19 05:55:19;;;;;;;97.35;52.60;;;;;;;11.05;100.00;98626.34;5022859;28;20025;-59
2024/02/19 05:57:45;;;;;;;55.03;21.70;;;;;;;11.66;100.00;98626.53;5024858;28;20029;-61
2024/02/19 06:00:13;;;;;;;56.78;13.75;;;;;;;11.61;100.00;98627.41;5023975;28;20039;-61
2024/02/19 06:02:43;;;;;;;43.85;11.82;;;;;;;11.29;100.00;98632.50;5025355;28;20025;-60
2024/02/19 06:05:10;;;;;;;53.22;11.27;;;;;;;11.01;100.00;98636.72;5023379;28;20021;-60
2024/02/19 06:07:35;;;;;;;45.92;9.95;;;;;;;11.30;100.00;98646.41;5025812;28;20021;-60
2024/02/19 06:10:01;;;;;;;64.35;22.30;;;;;;;11.02;100.00;98648.88;5021931;28;20032;-58
2024/02/19 06:12:27;;;;;;;101.38;45.97;;;;;;;11.59;100.00;98651.72;5023463;28;20124;-58
2024/02/19 06:14:52;;;;;;;46.50;13.50;;;;;;;11.25;100.00;98648.97;5024006;28;20401;-59
2024/02/19 06:17:18;;;;;;;83.15;15.60;;;;;;;11.49;100.00;98660.38;5021545;28;20426;-59
2024/02/19 06:19:43;;;;;;;84.95;28.38;;;;;;;12.86;100.00;98657.03;5025236;28;20036;-58
2024/02/19 06:22:10;;;;;;;54.83;29.85;;;;;;;11.48;100.00;98660.34;5023894;28;20040;-58
2024/02/19 06:24:35;;;;;;;86.22;13.60;;;;;;;11.49;100.00;98665.56;5021943;28;20408;-61
2024/02/19 06:27:00;;;;;;;54.15;15.25;;;;;;;10.81;100.00;98666.97;5024624;28;20037;-59
2024/02/19 06:29:26;;;;;;;79.43;22.55;;;;;;;10.94;100.00;98672.25;5023702;28;20022;-59
2024/02/19 06:31:54;;;;;;;64.72;16.42;;;;;;;10.53;100.00;98669.38;5023372;28;20032;-57
2024/02/19 06:34:19;;;;;;;66.43;13.70;;;;;;;11.43;100.00;98682.03;5023429;28;20098;-61
2024/02/19 06:36:44;;;;;;;55.33;29.00;;;;;;;11.62;100.00;98683.88;5025121;28;20041;-60
2024/02/19 06:39:10;;;;;;;63.22;33.20;;;;;;;11.43;100.00;98687.25;5022576;28;20032;-59
2024/02/19 06:41:35;;;;;;;45.83;10.93;;;;;;;11.04;100.00;98701.81;5024463;28;20037;-59
2024/02/19 06:44:00;;;;;;;45.75;11.32;;;;;;;11.63;100.00;98704.72;5023841;28;20021;-60
2024/02/19 06:46:26;;;;;;;113.75;22.10;;;;;;;11.82;100.00;98700.44;5021708;28;20049;-60
2024/02/19 06:48:51;;;;;;;55.75;24.90;;;;;;;11.44;100.00;98704.63;5022869;28;20296;-58
2024/02/19 06:51:17;;;;;;;83.30;17.90;;;;;;;11.17;100.00;98710.59;5022990;28;20067;-61
2024/02/19 06:53:43;;;;;;;58.83;13.80;;;;;;;12.28;100.00;98714.47;5023464;28;20053;-58
2024/02/19 06:56:08;;;;;;;42.38;14.02;;;;;;;11.56;100.00;98713.38;5022762;28;20651;-59
2024/02/19 06:58:34;;;;;;;43.42;11.23;;;;;;;10.59;100.00;98717.09;5022735;28;20536;-58
2024/02/19 07:00:59;;;;;;;54.85;13.15;;;;;;;9.86;100.00;98722.44;5021333;28;20186;-59
2024/02/19 07:03:24;;;;;;;74.53;27.05;;;;;;;9.68;100.00;98725.69;5022855;28;20629;-59
2024/02/19 07:05:50;;;;;;;68.05;30.77;;;;;;;9.67;100.00;98719.63;5023473;28;20392;-59
2024/02/19 07:08:15;;;;;;;81.82;43.10;;;;;;;9.72;100.00;98724.84;5020288;28;20115;-59
2024/02/19 07:10:41;;;;;;;42.22;10.80;;;;;;;9.75;100.00;98727.50;5020836;28;20041;-59
2024/02/19 07:13:06;;;;;;;67.38;25.83;;;;;;;9.66;100.00;98724.78;5023319;28;20718;-61
2024/02/19 07:15:32;;;;;;;58.90;11.82;;;;;;;9.72;100.00;98730.94;5020544;28;20045;-58
2024/02/19 07:17:57;;;;;;;61.40;26.80;;;;;;;9.80;100.00;98735.34;5024538;28;20025;-60
2024/02/19 07:20:22;;;;;;;80.22;13.15;;;;;;;10.01;100.00;98737.31;5018430;28;20032;-60
2024/02/19 07:22:48;;;;;;;55.47;27.00;;;;;;;9.71;100.00;98733.50;5024241;28;20055;-58
2024/02/19 07:25:13;;;;;;;49.90;12.23;;;;;;;9.82;100.00;98736.22;5023619;28;20111;-58
2024/02/19 07:27:38;;;;;;;55.17;17.05;;;;;;;10.07;100.00;98744.31;5022318;28;20029;-61
2024/02/19 07:30:04;;;;;;;54.63;22.60;;;;;;;10.11;100.00;98746.09;5022592;28;20386;-60
2024/02/19 07:32:30;;;;;;;118.32;69.72;;;;;;;10.16;100.00;98749.59;5022701;28;20045;-59
2024/02/19 07:34:55;;;;;;;71.00;14.60;;;;;;;9.90;100.00;98752.78;5021046;28;20116;-61
2024/02/19 07:37:20;;;;;;;74.70;26.70;;;;;;;10.96;100.00;98763.34;5020450;28;20036;-60
2024/02/19 07:39:46;;;;;;;51.08;26.33;;;;;;;10.91;100.00;98765.94;5023119;28;20037;-61
2024/02/19 07:42:11;;;;;;;37.75;9.48;;;;;;;10.96;100.00;98772.06;5023025;28;20342;-61
2024/02/19 07:44:36;;;;;;;70.15;17.13;;;;;;;11.17;100.00;98771.31;5020929;28;20029;-61
2024/02/19 07:47:03;;;;;;;47.08;16.58;;;;;;;11.44;100.00;98771.50;5023988;28;20425;-59
2024/02/19 07:49:29;;;;;;;84.60;15.60;;;;;;;12.31;100.00;98771.88;5028313;28;20021;-60
2024/02/19 07:51:54;;;;;;;52.63;24.50;;;;;;;12.20;100.00;98769.22;5022098;28;20348;-61
2024/02/19 07:54:19;;;;;;;59.90;10.07;;;;;;;11.22;100.00;98779.19;5022006;28;20638;-59
2024/02/19 07:56:45;;;;;;;50.00;14.80;;;;;;;11.45;100.00;98778.44;5022165;28;20029;-62
2024/02/19 07:59:11;;;;;;;46.50;10.73;;;;;;;11.59;100.00;98789.78;5023643;28;20045;-60
2024/02/19 08:01:36;;;;;;;63.00;35.00;;;;;;;12.17;100.00;98790.06;5020544;28;20437;-58
2024/02/19 08:04:01;;;;;;;48.58;10.77;;;;;;;12.08;100.00;98798.75;5022151;28;20644;-60
2024/02/19 08:06:28;;;;;;;70.55;11.68;;;;;;;11.98;100.00;98799.53;5017669;28;20025;-61
2024/02/19 08:08:54;;;;;;;45.40;9.20;;;;;;;11.99;100.00;98801.28;5022338;28;20585;-58
2024/02/19 08:11:20;;;;;;;72.22;24.92;;;;;;;13.13;100.00;98802.38;5018612;28;20187;-61
2024/02/19 08:13:45;;;;;;;42.38;9.88;;;;;;;11.76;100.00;98798.59;5024168;28;20443;-61
2024/02/19 08:16:11;;;;;;;39.33;8.20;;;;;;;11.36;100.00;98807.91;5021093;28;20033;-60
2024/02/19 08:18:37;;;;;;;62.60;17.17;;;;;;;11.92;100.00;98807.34;5021993;28;20370;-60
2024/02/19 08:21:03;;;;;;;47.85;10.70;;;;;;;12.02;100.00;98806.50;5019892;28;20584;-58
2024/02/19 08:23:28;;;;;;;70.93;19.85;;;;;;;11.50;100.00;98805.38;5021863;28;20551;-61
2024/02/19 08:25:54;;;;;;;63.65;10.90;;;;;;;12.47;100.00;98811.91;5022246;28;20037;-60
2024/02/19 08:28:19;;;;;;;41.92;13.00;;;;;;;13.84;100.00;98817.97;5023316;28;20022;-61
2024/02/19 08:30:44;;;;;;;40.63;11.90;;;;;;;13.57;100.00;98815.41;5021731;28;20124;-59
2024/02/19 08:33:10;;;;;;;54.92;14.23;;;;;;;13.95;100.00;98815.31;5023150;28;20043;-58
2024/02/19 08:35:35;;;;;;;66.28;14.02;;;;;;;12.58;100.00;98817.13;5022302;28;20484;-61
2024/02/19 08:38:00;;;;;;;57.55;15.60;;;;;;;12.58;100.00;98819.75;5022819;28;20469;-61
2024/02/19 08:40:26;;;;;;;108.45;48.83;;;;;;;12.79;100.00;98817.16;5017108;28;20337;-61
2024/02/19 08:42:51;;;;;;;56.80;34.97;;;;;;;12.97;100.00;98822.41;5025029;28;20029;-58
2024/02/19 08:45:17;;;;;;;33.05;12.65;;;;;;;12.26;100.00;98819.66;5021689;28;20610;-60
2024/02/19 08:47:42;;;;;;;62.42;13.02;;;;;;;12.97;100.00;98821.53;5021048;28;20032;-61
2024/02/19 08:50:08;;;;;;;41.28;12.35;;;;;;;13.07;100.00;98831.09;5021327;28;20471;-62
2024/02/19 08:52:33;;;;;;;52.08;10.65;;;;;;;12.79;100.00;98838.91;5024326;28;20029;-60
2024/02/19 08:54:59;;;;;;;72.78;17.73;;;;;;;12.01;100.00;98843.00;5021187;28;20493;-59
2024/02/19 08:57:24;;;;;;;52.28;12.75;;;;;;;12.87;100.00;98844.13;5023114;28;20084;-58
2024/02/19 08:59:49;;;;;;;45.58;11.55;;;;;;;12.43;100.00;98846.66;5022371;28;20032;-60
2024/02/19 09:02:15;;;;;;;55.58;22.70;;;;;;;13.04;100.00;98857.22;5020553;28;20297;-60
2024/02/19 09:04:44;;;;;;;69.00;35.70;;;;;;;14.01;100.00;98850.16;5023901;28;20047;-59
2024/02/19 09:07:13;;;;;;;180.20;161.02;;;;;;;12.53;100.00;98842.34;5026974;28;20049;-59
2024/02/19 09:09:42;;;;;;;63.72;22.20;;;;;;;12.99;100.00;98854.59;5024027;28;20026;-59
2024/02/19 09:12:08;;;;;;;38.20;10.38;;;;;;;12.76;100.00;98855.44;5025528;28;20037;-60
2024/02/19 09:14:33;;;;;;;80.50;23.30;;;;;;;12.54;100.00;98857.13;5025025;28;20036;-61
2024/02/19 09:16:59;;;;;;;50.83;15.15;;;;;;;12.30;100.00;98856.22;5025908;28;20045;-61
2024/02/19 09:19:24;;;;;;;47.67;15.50;;;;;;;12.32;100.00;98853.63;5027559;28;20393;-60
2024/02/19 09:21:49;;;;;;;36.17;9.18;;;;;;;12.13;100.00;98857.88;5024673;28;20648;-61
2024/02/19 09:24:15;;;;;;;28.83;10.93;;;;;;;11.48;100.00;98855.75;5027682;28;20067;-61
2024/02/19 09:26:41;;;;;;;54.22;39.38;;;;;;;13.04;100.00;98852.00;5025263;28;20398;-61
2024/02/19 09:29:07;;;;;;;75.85;43.35;;;;;;;13.85;100.00;98854.53;5026723;28;20099;-60
2024/02/19 09:31:33;;;;;;;116.32;75.32;;;;;;;13.47;100.00;98864.16;5024854;28;20378;-58
2024/02/19 09:33:59;;;;;;;38.42;18.95;;;;;;;12.83;100.00;98853.72;5026970;28;20071;-61
2024/02/19 09:36:25;;;;;;;92.80;60.58;;;;;;;12.53;100.00;98855.41;5024117;28;20043;-59
2024/02/19 09:38:51;;;;;;;40.45;16.10;;;;;;;12.67;100.00;98857.16;5026990;28;20032;-59
2024/02/19 09:41:16;;;;;;;194.93;155.65;;;;;;;12.79;100.00;98849.38;5023985;28;20128;-59
2024/02/19 09:43:41;;;;;;;87.15;71.28;;;;;;;13.00;100.00;98851.13;5027776;28;20028;-59
2024/02/19 09:46:19;;;;;;;36.40;14.27;;;;;;;12.92;100.00;98857.22;5026644;28;20291;-60
2024/02/19 09:48:50;;;;;;;72.78;57.38;;;;;;;12.60;100.00;98865.00;5025440;28;20032;-59
2024/02/19 09:51:20;;;;;;;45.20;26.58;;;;;;;14.22;100.00;98866.66;5025538;28;20433;-58
2024/02/19 09:53:51;;;;;;;35.17;11.18;;;;;;;14.49;100.00;98874.34;5027695;28;20037;-58
2024/02/19 09:56:22;;;;;;;28.45;7.95;;;;;;;13.44;100.00;98868.53;5027286;28;20080;-58
2024/02/19 09:58:48;;;;;;;43.78;28.95;;;;;;;14.25;100.00;98871.84;5026725;28;20334;-59
2024/02/19 10:01:14;;;;;;;76.75;59.60;;;;;;;10.67;100.00;98876.75;5023011;28;20041;-59
2024/02/19 10:03:39;;;;;;;100.50;89.97;;;;;;;9.21;100.00;98886.03;5026103;28;20025;-59
2024/02/19 10:06:06;;;;;;;62.55;34.88;;;;;;;9.06;100.00;98886.63;5024140;28;20038;-61
2024/02/19 10:08:31;;;;;;;85.32;39.17;;;;;;;9.07;100.00;98890.97;5024264;28;20502;-57
2024/02/19 10:10:59;;;;;;;54.92;28.40;;;;;;;8.89;100.00;98905.38;5025641;28;20126;-60
2024/02/19 10:13:24;;;;;;;56.78;33.08;;;;;;;8.65;100.00;98909.25;5026472;28;20540;-57
2024/02/19 10:15:50;;;;;;;58.88;19.35;;;;;;;8.81;100.00;98913.03;5028202;28;20032;-61
2024/02/19 10:18:20;;;;;;;61.22;46.92;;;;;;;8.52;100.00;98908.13;5029066;28;20449;-58
2024/02/19 10:20:53;;;;;;;66.40;49.45;;;;;;;8.64;100.00;98914.44;5027619;28;20041;-60
2024/02/19 10:23:21;;;;;;;68.18;47.25;;;;;;;8.64;100.00;98910.09;5029907;28;20494;-59
2024/02/19 10:25:47;;;;;;;62.67;49.30;;;;;;;8.38;100.00;98915.59;5026711;28;20497;-58
2024/02/19 10:28:13;;;;;;;75.32;40.58;;;;;;;8.33;100.00;98914.66;5028737;28;20052;-60
2024/02/19 10:30:39;;;;;;;56.35;17.98;;;;;;;8.64;100.00;98919.63;5029435;28;20132;-57
2024/02/19 10:33:06;;;;;;;96.13;85.25;;;;;;;9.18;100.00;98911.91;5031053;28;20033;-59
2024/02/19 10:35:32;;;;;;;75.53;28.05;;;;;;;9.71;100.00;98925.75;5024002;28;20322;-59
2024/02/19 10:38:00;;;;;;;41.97;13.38;;;;;;;10.00;100.00;98921.00;5028848;28;20183;-58
2024/02/19 10:40:27;;;;;;;62.83;40.58;;;;;;;9.96;100.00;98921.81;5026480;28;20108;-59
2024/02/19 10:42:53;;;;;;;51.85;14.63;;;;;;;10.47;100.00;98925.94;5028276;28;20446;-59
2024/02/19 10:45:21;;;;;;;46.03;37.85;;;;;;;10.19;100.00;98916.03;5028706;28;20021;-58
2024/02/19 10:47:50;;;;;;;36.83;15.30;;;;;;;10.39;100.00;98918.88;5027738;28;20449;-58
2024/02/19 10:50:18;;;;;;;29.85;15.15;;;;;;;11.27;100.00;98915.50;5026458;28;20453;-58
2024/02/19 10:52:44;;;;;;;66.85;59.85;;;;;;;10.39;100.00;98913.69;5029532;28;20127;-59
2024/02/19 10:55:13;;;;;;;47.25;23.00;;;;;;;11.14;100.00;98901.47;5029202;28;20022;-59
2024/02/19 10:57:50;;;;;;;88.97;61.15;;;;;;;11.94;100.00;98907.28;5029022;28;20828;-57
2024/02/19 11:00:16;;;;;;;88.20;69.95;;;;;;;11.27;100.00;98899.88;5026102;28;20116;-59
2024/02/19 11:02:42;;;;;;;130.60;110.97;;;;;;;11.43;100.00;98919.09;5029548;28;20032;-59